Fort Wayne, IN (46801)

2:56 AM EST on February 28, 2017 (GMT -0500)
Ludwig Park | | Change Station
Active Advisory: Flood Warning

Elev 774 ft 41.14 °N, 85.15 °W | Updated 9 seconds ago

Overcast
Overcast
43.2 °F
Feels Like 41 °F
N
4.3
Wind Variable Wind from East
Gusts 4.9 mph

Today
High -- | Low -- °F
--% Chance of Precip.
Yesterday
High -- | Low -- °F
Precip. -- in
Pressure 30.13 in
Visibility 4.0 miles
Clouds Mostly Cloudy 4100 ft
Overcast 12000 ft
Windchill 41 °F
Dew Point 42 °F
Humidity 96%
Rainfall 0.00 in
Snow Depth Not available.
7:15 AM 6:30 PM
Waxing Crescent, 4% visible
METAR KFWA 280654Z 11004KT 4SM BR BKN041 OVC120 06/04 A3012 RMK AO2 SLP203 T00560039
Pressure 30.13 in
Visibility 4.0 miles
Clouds Mostly Cloudy 4100 ft
Overcast 12000 ft
Windchill 41 °F
Dew Point 42 °F
Humidity 96%
Rainfall 0.00 in
Snow Depth Not available.
7:15 AM 6:30 PM
Waxing Crescent, 4% visible
METAR KFWA 280654Z 11004KT 4SM BR BKN041 OVC120 06/04 A3012 RMK AO2 SLP203 T00560039

Get Your Daily Forecast Email!

Thanks for signing up!

Be on the lookout for a verification email in your inbox.

You'll start receiving the daily forecast at 8 AM.

×

10-Day Weather Forecast

Almanac

Astronomy

Feb. 28, 2017 Rise Set
Actual Time
Civil Twilight
Nautical Twilight
Astronomical Twilight
Moon
Length of Visible Light
Length of Day
Tomorrow will be .
, % of the Moon is Illuminated

Today's Extremes

State Highs State Lows

Community

WunderPhotos

Upload Photos

1,962,540 photos uploaded!

WunderBlog® & News

Nearby

Air Quality

  Air Quality AQ Index Pollutant
Not available.

Snow Depth

Station Depth Elevation

Earthquake Activity

City Distance Mag. Time & Date
Minimum magnitude displayed is 2.5.

Coastal Water Temperatures

Place Temperature

Stations

Nearby Weather Stations

Station Location Temp. Windchill Dew Point Humidity Wind Precip. Elev Updated Type
                   

Watches & Warnings

Flood Warning
Issued: 10:06 AM EST Feb. 27, 2017 – National Weather Service

The National Weather Service in northern Indiana has issued a

* Flood Warning for
the Saint Joseph River Ohio above Newville
* from late Friday night until further notice.
* At 9 am Monday the stage was 7.3 feet and rising.
* Minor flooding is forecast.
* Flood stage is 12.0 feet.
* Forecast... the river will rise above flood stage very early
Saturday morning and crest near 12.1 feet around 7 am Saturday
March 4. Additional rises are possible thereafter.
* At 12.0 feet... DeKalb County Road 42 about 3 miles northeast of
Newville floods. Agricultural and low lands flood along the St.
Joseph river to the Cedarville Reservoir.
* This crest compares to a previous crest of 12.0 feet which occurred
on Dec 30 2015.


Lat... Lon 4126 8498 4140 8481 4139 8478 4123 8493